Time;durP1;ratioP1;P1;durP2;ratioP2;P2;SDS_P1;SDS_P2;PMS_P1;PMS_P2;Temp;Humidity;BMP_temperature;BMP_pressure;BME280_temperature;BME280_humidity;BME280_pressure;Samples;Min_cycle;Max_cycle;Signal;HPM_P1;HPM_P2
2022/09/04 00:00:18;;;;;;;6.57;3.00;;;16.80;1.00;;;;;;6266965;28;20346;-55
2022/09/04 00:03:38;;;;;;;3.90;2.50;;;16.80;1.00;;;;;;6278136;28;20324;-54
2022/09/04 00:06:53;;;;;;;5.93;2.67;;;16.70;1.00;;;;;;6279877;28;20253;-56
2022/09/04 00:10:10;;;;;;;3.10;2.70;;;16.70;1.00;;;;;;6286716;28;20340;-54
2022/09/04 00:13:20;;;;;;;3.13;2.93;;;16.70;1.00;;;;;;6238320;28;20242;-54
2022/09/04 00:16:32;;;;;;;2.87;2.67;;;16.60;1.00;;;;;;6253466;28;20226;-52
2022/09/04 00:19:40;;;;;;;2.60;2.60;;;16.60;1.00;;;;;;6272586;28;20244;-53
2022/09/04 00:22:52;;;;;;;4.43;3.03;;;16.70;1.00;;;;;;6286527;28;20631;-53
2022/09/04 00:26:02;;;;;;;3.00;2.90;;;16.60;1.00;;;;;;6286596;28;20332;-54
2022/09/04 00:29:19;;;;;;;2.90;2.80;;;16.50;1.00;;;;;;6262972;28;20237;-55
2022/09/04 00:32:28;;;;;;;4.50;2.80;;;16.40;1.00;;;;;;6262839;28;20783;-56
2022/09/04 00:35:33;;;;;;;2.40;2.30;;;16.50;1.00;;;;;;6283912;28;20725;-55
2022/09/04 00:38:41;;;;;;;2.60;2.47;;;16.40;1.00;;;;;;6285807;28;20610;-55
2022/09/04 00:42:01;;;;;;;2.63;2.40;;;16.30;1.00;;;;;;6278759;28;20373;-55
2022/09/04 00:45:19;;;;;;;3.00;2.80;;;16.30;1.00;;;;;;6268265;28;20237;-54
2022/09/04 00:49:11;;;;;;;3.10;2.90;;;16.30;1.00;;;;;;6263704;28;20230;-54
2022/09/04 00:52:30;;;;;;;3.03;2.70;;;16.30;1.00;;;;;;6275571;28;20235;-55
2022/09/04 00:55:52;;;;;;;6.27;3.20;;;16.20;1.00;;;;;;6260503;28;20804;-60
2022/09/04 00:59:10;;;;;;;2.80;2.70;;;16.10;1.00;;;;;;6259883;28;20967;-55
2022/09/04 01:02:25;;;;;;;2.87;2.67;;;16.10;1.00;;;;;;6271558;28;20264;-55
2022/09/04 01:05:44;;;;;;;2.90;2.80;;;16.10;1.00;;;;;;6299768;28;20225;-55
2022/09/04 01:09:20;;;;;;;3.50;2.50;;;16.10;1.00;;;;;;6277791;28;20407;-55
2022/09/04 01:12:35;;;;;;;4.03;2.63;;;16.10;1.00;;;;;;6281459;28;20320;-54
2022/09/04 01:15:43;;;;;;;2.97;2.60;;;16.00;1.00;;;;;;6267286;28;20313;-55
2022/09/04 01:18:54;;;;;;;2.40;2.30;;;16.00;1.00;;;;;;6278621;28;20352;-54
2022/09/04 01:22:15;;;;;;;3.60;2.47;;;16.00;1.00;;;;;;6285960;28;20312;-54
2022/09/04 01:25:37;;;;;;;2.40;2.20;;;16.00;1.00;;;;;;6293378;28;20642;-53
2022/09/04 01:28:53;;;;;;;4.53;2.57;;;15.90;1.00;;;;;;6280035;28;20244;-55
2022/09/04 01:32:06;;;;;;;2.53;2.43;;;15.90;1.00;;;;;;6284311;28;20653;-55
2022/09/04 01:35:19;;;;;;;4.00;2.60;;;15.90;1.00;;;;;;6276518;28;20233;-54
2022/09/04 01:38:31;;;;;;;2.87;2.63;;;15.80;1.00;;;;;;6280439;28;20244;-54
2022/09/04 01:41:38;;;;;;;2.60;2.50;;;15.80;1.00;;;;;;6283918;28;20793;-55
2022/09/04 01:44:42;;;;;;;3.07;2.10;;;15.80;1.00;;;;;;6275498;28;20319;-55
2022/09/04 01:47:49;;;;;;;2.40;2.30;;;15.80;1.00;;;;;;6258722;28;20266;-53
2022/09/04 01:50:59;;;;;;;2.40;2.27;;;15.80;1.00;;;;;;6282752;28;20251;-54
2022/09/04 01:54:17;;;;;;;2.70;2.30;;;15.80;1.00;;;;;;6277019;28;20321;-54
2022/09/04 01:57:44;;;;;;;2.77;2.40;;;15.80;1.00;;;;;;6259287;28;20241;-53
2022/09/04 02:00:56;;;;;;;2.30;2.20;;;15.80;1.00;;;;;;6275463;28;20238;-54
2022/09/04 02:04:06;;;;;;;2.93;2.53;;;15.70;1.00;;;;;;6274574;28;20377;-54
2022/09/04 02:07:19;;;;;;;2.50;2.30;;;15.70;1.00;;;;;;6273693;28;20238;-54
2022/09/04 02:10:34;;;;;;;2.87;2.43;;;15.70;1.00;;;;;;6283295;28;20276;-54
2022/09/04 02:13:50;;;;;;;2.47;2.37;;;15.70;1.00;;;;;;6267064;28;20768;-54
2022/09/04 02:17:07;;;;;;;2.97;2.27;;;15.70;1.00;;;;;;6277175;28;20225;-55
2022/09/04 02:20:18;;;;;;;1.90;1.90;;;15.60;1.00;;;;;;6290024;28;20326;-56
2022/09/04 02:23:29;;;;;;;2.27;2.20;;;15.60;1.00;;;;;;6262508;28;20230;-55
2022/09/04 02:26:39;;;;;;;3.70;2.40;;;15.60;1.00;;;;;;6256983;28;20581;-55
2022/09/04 02:29:48;;;;;;;2.40;2.20;;;15.60;1.00;;;;;;6257907;28;20729;-55
2022/09/04 02:33:02;;;;;;;2.20;2.10;;;15.50;1.00;;;;;;6262383;28;20703;-55
2022/09/04 02:36:12;;;;;;;2.20;2.20;;;15.40;1.00;;;;;;6282490;28;20339;-56
2022/09/04 02:39:29;;;;;;;2.30;2.30;;;15.40;1.00;;;;;;6283532;28;20257;-55
2022/09/04 02:42:43;;;;;;;2.10;2.00;;;15.40;1.00;;;;;;6268699;28;20237;-54
2022/09/04 02:45:53;;;;;;;2.40;2.20;;;15.40;1.00;;;;;;6281837;28;20238;-53
2022/09/04 02:49:06;;;;;;;2.13;2.03;;;15.40;1.00;;;;;;6271573;28;20331;-55
2022/09/04 02:52:24;;;;;;;2.30;2.27;;;15.40;1.00;;;;;;6277276;28;20728;-57
2022/09/04 02:55:43;;;;;;;2.30;2.20;;;15.40;1.00;;;;;;6282444;28;20749;-54
2022/09/04 02:59:02;;;;;;;2.43;2.43;;;15.40;1.00;;;;;;6265625;28;20257;-55
2022/09/04 03:02:11;;;;;;;4.63;2.40;;;15.30;1.00;;;;;;6279581;28;20267;-54
2022/09/04 03:05:20;;;;;;;2.37;2.17;;;15.30;1.00;;;;;;6279673;28;20592;-53
2022/09/04 03:08:30;;;;;;;2.40;2.30;;;15.30;1.00;;;;;;6280288;28;20233;-54
2022/09/04 03:11:45;;;;;;;2.30;2.30;;;15.30;1.00;;;;;;6256817;28;20238;-54
2022/09/04 03:14:57;;;;;;;2.60;2.40;;;15.30;1.00;;;;;;6257123;28;20316;-55
2022/09/04 03:18:05;;;;;;;2.40;2.30;;;15.30;1.00;;;;;;6257299;28;20799;-54
2022/09/04 03:21:15;;;;;;;2.53;2.40;;;15.30;1.00;;;;;;6284610;28;20696;-55
2022/09/04 03:24:23;;;;;;;2.47;2.40;;;15.20;1.00;;;;;;6289581;28;20495;-54
2022/09/04 03:27:27;;;;;;;2.40;2.20;;;15.20;1.00;;;;;;6262326;28;20317;-54
2022/09/04 03:30:35;;;;;;;2.30;2.10;;;15.20;1.00;;;;;;6262284;28;20252;-55
2022/09/04 03:34:18;;;;;;;2.43;2.33;;;15.10;1.00;;;;;;6261025;28;20312;-53
2022/09/04 03:37:50;;;;;;;2.47;2.37;;;15.10;1.00;;;;;;6272144;28;20691;-55
2022/09/04 03:41:05;;;;;;;2.17;2.17;;;15.00;1.00;;;;;;6268000;28;20241;-54
2022/09/04 03:44:21;;;;;;;2.63;2.53;;;15.00;1.00;;;;;;6292053;28;20716;-55
2022/09/04 03:47:37;;;;;;;2.27;2.20;;;15.00;1.00;;;;;;6270383;28;20267;-54
2022/09/04 03:50:49;;;;;;;2.60;2.50;;;15.00;1.00;;;;;;6294677;28;20239;-53
2022/09/04 03:54:05;;;;;;;2.20;2.20;;;14.90;1.00;;;;;;6295094;28;20287;-54
2022/09/04 03:57:31;;;;;;;2.50;2.50;;;14.90;1.00;;;;;;6295282;28;20240;-54
2022/09/04 04:00:44;;;;;;;2.07;2.07;;;14.80;1.00;;;;;;6289268;28;20336;-55
2022/09/04 04:04:22;;;;;;;2.17;2.07;;;14.80;1.00;;;;;;6294181;28;20234;-55
2022/09/04 04:07:34;;;;;;;2.20;2.20;;;14.80;1.00;;;;;;6287361;28;20663;-55
2022/09/04 04:10:51;;;;;;;2.70;2.53;;;14.70;1.00;;;;;;6296892;28;20248;-54
2022/09/04 04:14:06;;;;;;;2.63;2.40;;;14.70;1.00;;;;;;6290362;28;20718;-55
2022/09/04 04:17:30;;;;;;;3.27;2.60;;;14.60;1.00;;;;;;6284765;28;20473;-56
2022/09/04 04:20:41;;;;;;;2.77;2.57;;;14.60;1.00;;;;;;6291396;28;20310;-55
2022/09/04 04:24:13;;;;;;;2.57;2.30;;;14.60;1.00;;;;;;6289404;28;20228;-54
2022/09/04 04:27:35;;;;;;;2.63;2.43;;;14.50;1.00;;;;;;6288624;28;20234;-54
2022/09/04 04:30:48;;;;;;;2.47;2.23;;;14.50;1.00;;;;;;6287901;28;20525;-55
2022/09/04 04:33:58;;;;;;;2.37;2.37;;;14.50;1.00;;;;;;6283094;28;20627;-54
2022/09/04 04:37:08;;;;;;;2.30;2.30;;;14.50;1.00;;;;;;6287680;28;20390;-55
2022/09/04 04:40:18;;;;;;;2.60;2.50;;;14.50;1.00;;;;;;6288939;28;20261;-55
2022/09/04 04:43:30;;;;;;;2.40;2.40;;;14.50;1.00;;;;;;6290781;28;20225;-54
2022/09/04 04:46:47;;;;;;;2.60;2.50;;;14.50;1.00;;;;;;6294905;28;20261;-54
2022/09/04 04:50:03;;;;;;;2.50;2.30;;;14.40;1.00;;;;;;6283520;28;20492;-54
2022/09/04 04:53:16;;;;;;;2.47;2.30;;;14.40;1.00;;;;;;6283767;28;20234;-55
2022/09/04 04:56:26;;;;;;;2.40;2.30;;;14.40;1.00;;;;;;6284086;28;20251;-53
2022/09/04 04:59:45;;;;;;;2.30;2.30;;;14.40;1.00;;;;;;6276918;28;20683;-55
2022/09/04 05:03:04;;;;;;;2.80;2.50;;;14.40;1.00;;;;;;6276991;28;20257;-55
2022/09/04 05:06:14;;;;;;;2.87;2.67;;;14.30;1.00;;;;;;6281434;28;20303;-55
2022/09/04 05:09:30;;;;;;;2.50;2.30;;;14.30;1.00;;;;;;6281908;28;20247;-55
2022/09/04 05:12:49;;;;;;;2.50;2.50;;;14.30;1.00;;;;;;6264901;28;20265;-55
2022/09/04 05:16:00;;;;;;;2.20;2.20;;;14.30;1.00;;;;;;6285083;28;20312;-54
2022/09/04 05:19:23;;;;;;;2.50;2.30;;;14.30;1.00;;;;;;6279127;28;20229;-54
2022/09/04 05:22:36;;;;;;;2.40;2.40;;;14.30;1.00;;;;;;6278124;28;20523;-53
2022/09/04 05:25:46;;;;;;;2.50;2.40;;;14.30;1.00;;;;;;6283391;28;20229;-55
2022/09/04 05:28:58;;;;;;;2.10;2.10;;;14.30;1.00;;;;;;6283964;28;20414;-54
2022/09/04 05:32:13;;;;;;;3.03;2.60;;;14.40;1.00;;;;;;6270304;28;20287;-54
2022/09/04 05:35:22;;;;;;;2.40;2.40;;;14.50;1.00;;;;;;6277906;28;20465;-54
2022/09/04 05:38:36;;;;;;;2.50;2.40;;;14.50;1.00;;;;;;6287587;28;20229;-54
2022/09/04 05:41:55;;;;;;;6.87;2.50;;;14.50;1.00;;;;;;6276748;28;20315;-54
2022/09/04 05:45:06;;;;;;;2.53;2.33;;;14.50;1.00;;;;;;6278400;28;20675;-55
2022/09/04 05:48:21;;;;;;;3.33;2.53;;;14.50;1.00;;;;;;6275264;28;20689;-56
2022/09/04 05:52:04;;;;;;;2.57;2.47;;;14.60;1.00;;;;;;6273696;28;20238;-55
2022/09/04 05:55:41;;;;;;;2.57;2.50;;;14.60;1.00;;;;;;6279326;28;20552;-53
2022/09/04 05:58:59;;;;;;;2.60;2.50;;;14.70;1.00;;;;;;6273963;28;20246;-55
2022/09/04 06:02:21;;;;;;;2.57;2.37;;;14.70;1.00;;;;;;6275907;28;20229;-54
2022/09/04 06:05:35;;;;;;;2.60;2.50;;;14.80;1.00;;;;;;6282863;28;20334;-55
2022/09/04 06:09:08;;;;;;;2.33;2.13;;;14.80;1.00;;;;;;6278654;28;20525;-54
2022/09/04 06:12:51;;;;;;;2.30;2.27;;;15.00;1.00;;;;;;6285927;28;20496;-52
2022/09/04 06:16:11;;;;;;;2.83;2.70;;;15.20;1.00;;;;;;6197154;28;20351;-55
2022/09/04 06:19:38;;;;;;;2.77;2.57;;;15.40;1.00;;;;;;6269730;28;20232;-53
2022/09/04 06:23:01;;;;;;;2.67;2.57;;;15.60;1.00;;;;;;6275364;28;20248;-55
2022/09/04 06:26:33;;;;;;;2.80;2.70;;;15.80;1.00;;;;;;6264422;28;20230;-55
2022/09/04 06:29:51;;;;;;;2.80;2.70;;;15.90;1.00;;;;;;6263096;28;20861;-54
2022/09/04 06:33:29;;;;;;;5.57;2.87;;;16.00;1.00;;;;;;6269355;28;20328;-54
2022/09/04 06:36:59;;;;;;;3.53;3.23;;;15.90;1.00;;;;;;6273675;28;20514;-55
2022/09/04 06:40:17;;;;;;;3.50;3.20;;;15.90;1.00;;;;;;6270839;28;20324;-55
2022/09/04 06:43:32;;;;;;;2.97;2.87;;;15.80;1.00;;;;;;6276317;28;20632;-55
2022/09/04 06:46:42;;;;;;;3.17;3.00;;;15.80;1.00;;;;;;6277615;28;20679;-54
2022/09/04 06:50:06;;;;;;;2.93;2.83;;;16.00;1.00;;;;;;6287715;28;20238;-55
2022/09/04 06:53:20;;;;;;;3.03;2.83;;;16.10;1.00;;;;;;6291364;28;20236;-55
2022/09/04 06:56:38;;;;;;;3.00;2.90;;;16.20;1.00;;;;;;6273321;28;20226;-56
2022/09/04 06:59:55;;;;;;;3.27;3.17;;;16.30;1.00;;;;;;6263386;28;20233;-55
2022/09/04 07:03:19;;;;;;;3.73;3.10;;;16.30;1.00;;;;;;6280291;28;20312;-56
2022/09/04 07:06:32;;;;;;;3.13;3.03;;;16.40;1.00;;;;;;6276211;28;20298;-55
2022/09/04 07:09:40;;;;;;;3.97;2.97;;;16.40;1.00;;;;;;6281455;28;20245;-54
2022/09/04 07:13:27;;;;;;;5.80;3.63;;;16.50;1.00;;;;;;6278356;28;20256;-54
2022/09/04 07:16:40;;;;;;;3.00;2.90;;;16.60;1.00;;;;;;6269399;28;20233;-54
2022/09/04 07:19:57;;;;;;;3.70;3.50;;;16.60;1.00;;;;;;6279711;28;21359;-55
2022/09/04 07:23:22;;;;;;;4.17;3.90;;;16.70;1.00;;;;;;6270891;28;20476;-54
2022/09/04 07:26:34;;;;;;;4.07;3.13;;;16.80;1.00;;;;;;6266315;28;20242;-54
2022/09/04 07:29:50;;;;;;;4.20;3.90;;;16.90;1.00;;;;;;6278492;28;20315;-55
2022/09/04 07:32:57;;;;;;;3.57;3.37;;;17.00;1.00;;;;;;6272635;28;20237;-54
2022/09/04 07:36:13;;;;;;;3.97;3.80;;;17.20;1.00;;;;;;6275178;28;20222;-56
2022/09/04 07:39:24;;;;;;;3.27;3.10;;;17.20;1.00;;;;;;6269024;28;20222;-55
2022/09/04 07:42:34;;;;;;;3.73;3.63;;;17.30;1.00;;;;;;6269015;28;20237;-55
2022/09/04 07:45:46;;;;;;;4.40;4.00;;;17.40;1.00;;;;;;6270698;28;20283;-56
2022/09/04 07:48:55;;;;;;;4.27;4.10;;;17.50;1.00;;;;;;6269502;28;20503;-54
2022/09/04 07:52:06;;;;;;;3.97;3.70;;;17.60;1.00;;;;;;6272037;28;20608;-55
2022/09/04 07:55:22;;;;;;;3.70;3.60;;;17.70;1.00;;;;;;6280547;28;20237;-54
2022/09/04 07:59:04;;;;;;;4.00;3.90;;;17.80;1.00;;;;;;6277139;28;20239;-55
2022/09/04 08:02:23;;;;;;;3.90;3.80;;;18.00;1.00;;;;;;6267882;28;20283;-55
2022/09/04 08:05:31;;;;;;;3.90;3.70;;;18.00;1.00;;;;;;6241684;28;20315;-55
2022/09/04 08:08:56;;;;;;;4.10;3.80;;;18.10;1.00;;;;;;6282511;28;20238;-54
2022/09/04 08:12:30;;;;;;;4.07;3.90;;;18.20;1.00;;;;;;6284278;28;20713;-55
2022/09/04 08:15:42;;;;;;;4.17;4.07;;;18.40;1.00;;;;;;6274433;28;20716;-54
2022/09/04 08:19:07;;;;;;;4.27;3.83;;;18.50;1.00;;;;;;6272637;28;20248;-54
2022/09/04 08:22:17;;;;;;;4.27;4.07;;;18.50;1.00;;;;;;6279643;28;20233;-56
2022/09/04 08:25:27;;;;;;;4.10;3.90;;;18.70;1.00;;;;;;6273562;28;20229;-55
2022/09/04 08:28:43;;;;;;;3.93;3.73;;;18.70;1.00;;;;;;6283447;28;20385;-54
2022/09/04 08:32:02;;;;;;;4.00;3.80;;;18.90;1.00;;;;;;6284337;28;20245;-53
2022/09/04 08:35:22;;;;;;;3.60;3.40;;;19.00;1.00;;;;;;6285019;28;20226;-55
2022/09/04 08:38:40;;;;;;;3.97;3.77;;;19.10;1.00;;;;;;6277922;28;20362;-55
2022/09/04 08:42:28;;;;;;;4.10;3.70;;;19.10;1.00;;;;;;6276143;28;20239;-55
2022/09/04 08:46:04;;;;;;;3.90;3.60;;;19.20;1.00;;;;;;6271092;28;20734;-55
2022/09/04 08:49:41;;;;;;;3.60;3.40;;;19.30;1.00;;;;;;6274614;28;20245;-55
2022/09/04 08:53:17;;;;;;;3.60;3.40;;;19.50;1.00;;;;;;6271178;28;20313;-57
2022/09/04 08:56:26;;;;;;;3.60;3.40;;;19.60;1.00;;;;;;6253850;28;20682;-56
2022/09/04 09:00:04;;;;;;;3.87;3.77;;;19.70;1.00;;;;;;6271812;28;20486;-55
2022/09/04 09:03:46;;;;;;;4.53;4.23;;;19.80;1.00;;;;;;6269696;28;20766;-55
2022/09/04 09:07:30;;;;;;;3.90;3.80;;;19.90;1.00;;;;;;6268156;28;20360;-56
2022/09/04 09:10:55;;;;;;;3.57;3.37;;;20.00;1.00;;;;;;6256929;28;20229;-56
2022/09/04 09:14:43;;;;;;;3.47;3.27;;;20.20;1.00;;;;;;6270290;28;20235;-59
2022/09/04 09:18:00;;;;;;;4.33;3.93;;;20.30;1.00;;;;;;6253602;28;20346;-56
2022/09/04 09:21:09;;;;;;;3.47;3.37;;;20.40;1.00;;;;;;6286152;28;20237;-54
2022/09/04 09:24:45;;;;;;;3.40;3.30;;;20.50;1.00;;;;;;6290370;28;20318;-54
2022/09/04 09:28:30;;;;;;;2.90;2.80;;;20.60;1.00;;;;;;6287702;28;20226;-55
2022/09/04 09:32:05;;;;;;;3.33;3.20;;;20.80;1.00;;;;;;6275502;28;20730;-53
2022/09/04 09:35:54;;;;;;;3.67;3.37;;;20.90;1.00;;;;;;6282131;28;20274;-54
2022/09/04 09:39:21;;;;;;;3.33;3.20;;;21.00;1.00;;;;;;6279247;28;20575;-55
2022/09/04 09:42:56;;;;;;;3.27;3.07;;;21.20;1.00;;;;;;6279491;28;20638;-54
2022/09/04 09:46:32;;;;;;;3.17;3.07;;;21.30;1.00;;;;;;6278883;28;20312;-55
2022/09/04 09:50:18;;;;;;;2.80;2.70;;;21.40;1.00;;;;;;6279537;28;20287;-56
2022/09/04 09:53:48;;;;;;;3.70;3.37;;;21.60;1.00;;;;;;6280206;28;20642;-56
2022/09/04 09:57:29;;;;;;;3.10;3.00;;;21.60;1.00;;;;;;6280399;28;20300;-55
2022/09/04 10:00:45;;;;;;;3.20;3.03;;;21.70;1.00;;;;;;6282472;28;20391;-54
2022/09/04 10:04:13;;;;;;;3.30;3.10;;;21.80;1.00;;;;;;6272122;28;20391;-56
2022/09/04 10:07:53;;;;;;;3.07;2.90;;;21.90;1.00;;;;;;6287705;28;20557;-55
2022/09/04 10:11:37;;;;;;;3.43;3.27;;;22.10;1.00;;;;;;6280265;28;20468;-56
2022/09/04 10:15:18;;;;;;;3.37;3.17;;;22.10;1.00;;;;;;6209340;28;20611;-54
2022/09/04 10:18:40;;;;;;;2.87;2.77;;;22.20;1.00;;;;;;6263494;28;20530;-55
2022/09/04 10:22:28;;;;;;;2.70;2.60;;;22.50;1.00;;;;;;6283992;28;20233;-55
2022/09/04 10:26:01;;;;;;;2.90;2.80;;;22.60;1.00;;;;;;6280487;28;20331;-54
2022/09/04 10:29:30;;;;;;;2.97;2.87;;;22.80;1.00;;;;;;6274284;28;20260;-54
2022/09/04 10:33:21;;;;;;;2.97;2.80;;;22.80;1.00;;;;;;6279125;28;20297;-55
2022/09/04 10:36:37;;;;;;;3.70;3.60;;;22.90;1.00;;;;;;6277924;28;20238;-54
2022/09/04 10:43:36;;;;;;;3.03;2.93;;;23.20;1.00;;;;;;6275137;28;20390;-53
2022/09/04 10:46:49;;;;;;;2.73;2.63;;;23.50;1.00;;;;;;6272682;28;20225;-54
2022/09/04 10:50:11;;;;;;;3.33;3.10;;;23.50;1.00;;;;;;6274666;28;20241;-54
2022/09/04 10:53:50;;;;;;;2.97;2.87;;;23.60;1.00;;;;;;6281360;28;20312;-55
2022/09/04 10:57:04;;;;;;;3.00;2.90;;;23.80;1.00;;;;;;6271574;28;20763;-54
2022/09/04 11:00:12;;;;;;;3.00;2.90;;;23.90;1.00;;;;;;6274772;28;20229;-54
2022/09/04 11:04:12;;;;;;;3.00;2.83;;;24.00;1.00;;;;;;6281265;28;20230;-54
2022/09/04 11:07:36;;;;;;;3.20;3.10;;;23.90;1.00;;;;;;6278619;28;20228;-55
2022/09/04 11:11:02;;;;;;;2.60;2.60;;;23.80;1.00;;;;;;6281422;28;20706;-56
2022/09/04 11:14:33;;;;;;;4.00;2.90;;;23.80;1.00;;;;;;6280176;28;20682;-54
2022/09/04 11:18:02;;;;;;;4.87;2.90;;;24.00;1.00;;;;;;6281612;28;20734;-54
2022/09/04 11:21:57;;;;;;;2.83;2.83;;;24.00;1.00;;;;;;6280824;28;20315;-55
2022/09/04 11:25:44;;;;;;;2.93;2.80;;;24.00;1.00;;;;;;6274142;28;20239;-53
2022/09/04 11:29:16;;;;;;;3.27;3.17;;;24.10;1.00;;;;;;6248655;28;20312;-54
2022/09/04 11:33:08;;;;;;;4.13;3.33;;;24.20;1.00;;;;;;6278347;28;20332;-55
2022/09/04 11:36:59;;;;;;;3.80;3.60;;;24.30;1.00;;;;;;6278672;28;20519;-55
2022/09/04 11:40:41;;;;;;;3.23;3.13;;;24.00;1.00;;;;;;6229368;28;20329;-54
2022/09/04 11:44:06;;;;;;;3.10;3.00;;;24.00;1.00;;;;;;6275437;28;20242;-56
2022/09/04 11:47:51;;;;;;;7.13;3.60;;;24.00;1.00;;;;;;6281426;28;20307;-56
2022/09/04 11:51:23;;;;;;;3.13;2.93;;;24.00;1.00;;;;;;6283954;28;20233;-54
2022/09/04 11:55:12;;;;;;;3.33;3.23;;;24.00;1.00;;;;;;6285433;28;20659;-55
2022/09/04 11:58:47;;;;;;;3.20;3.10;;;24.10;1.00;;;;;;6260286;28;20679;-55
2022/09/04 12:02:13;;;;;;;3.27;3.17;;;24.30;1.00;;;;;;6283212;28;20805;-54
2022/09/04 12:05:37;;;;;;;2.83;2.73;;;24.30;1.00;;;;;;6283927;28;20241;-56
2022/09/04 12:09:19;;;;;;;3.80;3.47;;;24.40;1.00;;;;;;6283275;28;20320;-55
2022/09/04 12:12:50;;;;;;;3.20;3.00;;;24.60;1.00;;;;;;6201547;28;20259;-55
2022/09/04 12:16:42;;;;;;;3.17;2.90;;;24.80;1.00;;;;;;6280611;28;20237;-54
2022/09/04 12:20:22;;;;;;;3.60;3.30;;;24.90;1.00;;;;;;6278737;28;20900;-56
2022/09/04 12:23:55;;;;;;;3.60;3.50;;;24.80;1.00;;;;;;6275657;28;20774;-54
2022/09/04 12:27:38;;;;;;;3.07;2.97;;;24.80;1.00;;;;;;6266621;28;20313;-55
2022/09/04 12:31:01;;;;;;;3.60;3.30;;;24.80;1.00;;;;;;6285138;28;20246;-55
2022/09/04 12:34:23;;;;;;;3.07;2.97;;;24.80;1.00;;;;;;6278091;28;20266;-54
2022/09/04 12:37:48;;;;;;;3.47;3.27;;;25.00;1.00;;;;;;6282588;28;20795;-55
2022/09/04 12:40:58;;;;;;;3.10;2.90;;;24.80;1.00;;;;;;6284617;28;20310;-54
2022/09/04 12:44:10;;;;;;;3.33;3.13;;;24.60;1.00;;;;;;6279100;28;20367;-55
2022/09/04 12:47:27;;;;;;;3.20;3.00;;;24.50;1.00;;;;;;6280896;28;20340;-55
2022/09/04 12:50:39;;;;;;;3.40;3.20;;;24.50;1.00;;;;;;6279392;28;20266;-54
2022/09/04 12:53:58;;;;;;;3.93;3.40;;;24.70;1.00;;;;;;6284635;28;20260;-54
2022/09/04 12:57:17;;;;;;;3.57;3.30;;;24.80;1.00;;;;;;6276307;28;21391;-55
2022/09/04 13:00:31;;;;;;;2.97;2.77;;;24.90;1.00;;;;;;6282320;28;20244;-52
2022/09/04 13:03:59;;;;;;;4.70;3.27;;;25.00;1.00;;;;;;6283847;28;20241;-54
2022/09/04 13:07:26;;;;;;;3.53;2.97;;;25.10;1.00;;;;;;6283308;28;20319;-54
2022/09/04 13:10:36;;;;;;;3.03;2.90;;;25.20;1.00;;;;;;6284499;28;20772;-55
2022/09/04 13:13:47;;;;;;;2.83;2.83;;;25.30;1.00;;;;;;6276186;28;20586;-54
2022/09/04 13:17:00;;;;;;;3.10;3.00;;;25.30;1.00;;;;;;6274636;28;20243;-54
2022/09/04 13:20:14;;;;;;;3.30;3.20;;;25.30;1.00;;;;;;6288616;28;20698;-50
2022/09/04 13:23:41;;;;;;;3.60;3.50;;;25.30;1.00;;;;;;6277811;28;20713;-54
2022/09/04 13:27:02;;;;;;;3.20;3.00;;;25.10;1.00;;;;;;6283943;28;20727;-55
2022/09/04 13:30:08;;;;;;;2.97;2.97;;;25.00;1.00;;;;;;6280204;28;20237;-54
2022/09/04 13:33:38;;;;;;;3.67;3.47;;;25.00;1.00;;;;;;6273483;28;20233;-55
2022/09/04 13:36:52;;;;;;;3.30;3.10;;;25.10;1.00;;;;;;6289390;28;20340;-55
2022/09/04 13:40:17;;;;;;;3.03;2.90;;;25.20;1.00;;;;;;6276965;28;20234;-55
2022/09/04 13:43:39;;;;;;;2.70;2.70;;;25.10;1.00;;;;;;6280652;28;20719;-54
2022/09/04 13:46:46;;;;;;;3.47;3.23;;;25.10;1.00;;;;;;6291527;28;20237;-54
2022/09/04 13:49:58;;;;;;;3.07;2.97;;;24.90;1.00;;;;;;6289291;28;20725;-56
2022/09/04 13:53:13;;;;;;;2.97;2.77;;;25.00;1.00;;;;;;6283958;28;20371;-54
2022/09/04 13:56:18;;;;;;;3.10;2.97;;;25.10;1.00;;;;;;6279854;28;20371;-54
2022/09/04 13:59:23;;;;;;;2.80;2.70;;;25.00;1.00;;;;;;6280131;28;20362;-55
2022/09/04 14:02:29;;;;;;;3.67;3.50;;;24.80;1.00;;;;;;6277721;28;20720;-54
2022/09/04 14:05:36;;;;;;;3.20;3.10;;;24.90;1.00;;;;;;6281599;28;20243;-54
2022/09/04 14:08:42;;;;;;;3.40;3.30;;;25.00;1.00;;;;;;6280968;28;20236;-53
2022/09/04 14:12:18;;;;;;;3.10;2.90;;;25.00;1.00;;;;;;6282384;28;20351;-55
2022/09/04 14:15:43;;;;;;;3.23;3.13;;;24.90;1.00;;;;;;6278727;28;20598;-54
2022/09/04 14:19:04;;;;;;;3.43;3.30;;;24.90;1.00;;;;;;6253108;28;20321;-54
2022/09/04 14:22:32;;;;;;;3.00;2.90;;;25.00;1.00;;;;;;6279615;28;20251;-50
2022/09/04 14:25:49;;;;;;;2.67;2.47;;;25.10;1.00;;;;;;6281421;28;20660;-54
2022/09/04 14:29:01;;;;;;;3.43;3.33;;;24.90;1.00;;;;;;6275431;28;20326;-55
2022/09/04 14:32:17;;;;;;;2.97;2.83;;;24.70;1.00;;;;;;6281124;28;20225;-54
2022/09/04 14:35:31;;;;;;;3.70;3.50;;;24.60;1.00;;;;;;6285281;28;20238;-54
2022/09/04 14:38:52;;;;;;;2.80;2.80;;;24.50;1.00;;;;;;6281520;28;20322;-54
2022/09/04 14:42:22;;;;;;;3.40;3.10;;;24.50;1.00;;;;;;6282091;28;20390;-54
2022/09/04 14:45:57;;;;;;;3.60;3.30;;;24.30;1.00;;;;;;6282443;28;20284;-55
2022/09/04 14:49:03;;;;;;;3.30;3.20;;;24.20;1.00;;;;;;6280199;28;20560;-55
2022/09/04 14:52:18;;;;;;;3.20;3.00;;;24.30;1.00;;;;;;6272127;28;20230;-55
2022/09/04 14:55:29;;;;;;;3.03;2.83;;;24.40;1.00;;;;;;6278228;28;20226;-54
2022/09/04 14:58:36;;;;;;;3.63;3.50;;;24.60;1.00;;;;;;6279451;28;20264;-54
2022/09/04 15:02:00;;;;;;;2.63;2.53;;;24.60;1.00;;;;;;6278087;28;20266;-54
2022/09/04 15:05:15;;;;;;;5.13;3.27;;;24.50;1.00;;;;;;6280260;28;20790;-54
2022/09/04 15:08:27;;;;;;;3.17;2.97;;;24.40;1.00;;;;;;6280552;28;20242;-55
2022/09/04 15:11:34;;;;;;;2.87;2.77;;;24.30;1.00;;;;;;6279438;28;20621;-56
2022/09/04 15:14:38;;;;;;;2.87;2.87;;;24.40;1.00;;;;;;6282661;28;20639;-56
2022/09/04 15:17:50;;;;;;;3.43;3.33;;;24.40;1.00;;;;;;6277434;28;20311;-55
2022/09/04 15:20:57;;;;;;;3.27;3.00;;;24.40;1.00;;;;;;6285753;28;20299;-55
2022/09/04 15:24:11;;;;;;;5.00;3.07;;;24.50;1.00;;;;;;6275891;28;20282;-55
2022/09/04 15:27:22;;;;;;;2.93;2.93;;;24.40;1.00;;;;;;6282703;28;20840;-55
2022/09/04 15:30:30;;;;;;;3.00;2.90;;;24.50;1.00;;;;;;6285182;28;20454;-55
2022/09/04 15:33:43;;;;;;;3.00;2.90;;;24.70;1.00;;;;;;6286395;28;20247;-55
2022/09/04 15:37:10;;;;;;;3.60;3.30;;;24.80;1.00;;;;;;6282096;28;20239;-54
2022/09/04 15:40:27;;;;;;;3.17;3.07;;;24.70;1.00;;;;;;6285145;28;20625;-55
2022/09/04 15:43:38;;;;;;;3.27;3.07;;;24.70;1.00;;;;;;6285510;28;20241;-54
2022/09/04 15:46:49;;;;;;;2.97;2.87;;;24.50;1.00;;;;;;6286099;28;20682;-55
2022/09/04 15:50:00;;;;;;;3.23;3.10;;;24.30;1.00;;;;;;6285241;28;20237;-55
2022/09/04 15:53:14;;;;;;;3.37;3.07;;;24.20;1.00;;;;;;6277284;28;20241;-54
2022/09/04 15:56:36;;;;;;;3.50;3.20;;;24.10;1.00;;;;;;6287349;28;20234;-54
2022/09/04 15:59:50;;;;;;;3.20;3.10;;;23.90;1.00;;;;;;6284785;28;20691;-53
2022/09/04 16:03:00;;;;;;;3.43;2.87;;;23.80;1.00;;;;;;6254519;28;20233;-55
2022/09/04 16:06:12;;;;;;;3.13;3.03;;;23.80;1.00;;;;;;6271131;28;20581;-53
2022/09/04 16:09:23;;;;;;;3.27;3.07;;;23.60;1.00;;;;;;6277059;28;20225;-54
2022/09/04 16:12:32;;;;;;;3.30;3.20;;;23.50;1.00;;;;;;6285251;28;20230;-55
2022/09/04 16:15:40;;;;;;;3.67;3.43;;;23.30;1.00;;;;;;6279387;28;20415;-54
2022/09/04 16:19:06;;;;;;;3.50;3.30;;;23.30;1.00;;;;;;6280169;28;20821;-55
2022/09/04 16:22:20;;;;;;;3.40;3.10;;;23.10;1.00;;;;;;6272519;28;20311;-54
2022/09/04 16:25:28;;;;;;;3.47;3.27;;;23.00;1.00;;;;;;6281850;28;20242;-54
2022/09/04 16:28:34;;;;;;;3.57;3.33;;;23.00;1.00;;;;;;6275294;28;20240;-53
2022/09/04 16:31:39;;;;;;;2.80;2.80;;;22.90;1.00;;;;;;6275976;28;20328;-56
2022/09/04 16:34:48;;;;;;;3.03;2.90;;;22.90;1.00;;;;;;6278092;28;20446;-53
2022/09/04 16:37:56;;;;;;;7.20;2.90;;;22.80;1.00;;;;;;6274694;28;20372;-54
2022/09/04 16:41:04;;;;;;;2.70;2.50;;;22.80;1.00;;;;;;6274814;28;20359;-54
2022/09/04 16:44:26;;;;;;;3.07;2.90;;;22.70;1.00;;;;;;6271067;28;20380;-57
2022/09/04 16:47:43;;;;;;;3.03;2.93;;;22.60;1.00;;;;;;6268877;28;20257;-53
2022/09/04 16:50:53;;;;;;;3.33;3.13;;;22.50;1.00;;;;;;6287944;28;20655;-54
2022/09/04 16:54:04;;;;;;;3.37;3.27;;;22.50;1.00;;;;;;6273823;28;20246;-55
2022/09/04 16:57:11;;;;;;;3.17;2.97;;;22.40;1.00;;;;;;6273638;28;20253;-55
2022/09/04 17:00:17;;;;;;;3.50;3.30;;;22.40;1.00;;;;;;6274689;28;20474;-54
2022/09/04 17:03:40;;;;;;;3.10;3.00;;;22.30;1.00;;;;;;6281277;28;20418;-54
2022/09/04 17:06:56;;;;;;;3.70;3.50;;;22.20;1.00;;;;;;6279339;28;20229;-55
2022/09/04 17:10:05;;;;;;;3.57;3.23;;;22.20;1.00;;;;;;6268595;28;20227;-55
2022/09/04 17:13:15;;;;;;;3.77;2.93;;;22.10;1.00;;;;;;6275374;28;20244;-54
2022/09/04 17:16:21;;;;;;;3.40;3.30;;;22.00;1.00;;;;;;6281722;28;20710;-56
2022/09/04 17:19:27;;;;;;;3.53;3.20;;;22.00;1.00;;;;;;6276817;28;20731;-53
2022/09/04 17:22:35;;;;;;;3.90;3.40;;;22.00;1.00;;;;;;6280627;28;20359;-54
2022/09/04 17:26:07;;;;;;;4.40;4.00;;;21.90;1.00;;;;;;6277418;28;20714;-54
2022/09/04 17:29:35;;;;;;;3.60;3.40;;;21.80;1.00;;;;;;6245145;28;20474;-53
2022/09/04 17:32:57;;;;;;;3.20;3.10;;;21.70;1.00;;;;;;6279746;28;20244;-54
2022/09/04 17:36:31;;;;;;;3.37;3.27;;;21.60;1.00;;;;;;6274921;28;20293;-54